createdAt,value
2022-08-14T00:02:27.677Z,20.70
2022-08-14T00:04:58.086Z,20.70
2022-08-14T00:07:26.477Z,20.60
2022-08-14T00:10:41.969Z,20.50
2022-08-14T00:12:47.986Z,20.50
2022-08-14T00:15:43.696Z,20.50
2022-08-14T00:18:30.601Z,20.40
2022-08-14T00:21:04.879Z,20.40
2022-08-14T00:23:39.041Z,20.30
2022-08-14T00:26:08.494Z,20.20
2022-08-14T00:28:50.576Z,20.10
2022-08-14T00:31:19.683Z,20.00
2022-08-14T00:34:37.376Z,19.80
2022-08-14T00:36:53.788Z,19.70
2022-08-14T00:39:22.465Z,19.60
2022-08-14T00:41:54.034Z,19.50
2022-08-14T00:44:27.667Z,19.50
2022-08-14T00:47:02.596Z,19.50
2022-08-14T00:49:31.338Z,19.40
2022-08-14T00:52:08.507Z,19.40
2022-08-14T00:54:39.153Z,19.30
2022-08-14T00:57:08.458Z,19.20
2022-08-14T00:59:37.754Z,19.20
2022-08-14T01:02:09.264Z,19.10
2022-08-14T01:04:53.706Z,19.10
2022-08-14T01:07:27.270Z,18.90
2022-08-14T01:09:57.239Z,18.80
2022-08-14T01:12:29.677Z,18.80
2022-08-14T01:14:59.683Z,18.70
2022-08-14T01:17:50.618Z,18.70
2022-08-14T01:20:40.231Z,18.70
2022-08-14T01:23:16.600Z,18.60
2022-08-14T01:25:48.773Z,18.50
2022-08-14T01:28:46.496Z,18.50
2022-08-14T01:31:10.275Z,18.40
2022-08-14T01:34:00.218Z,18.30
2022-08-14T01:36:35.438Z,18.30
2022-08-14T01:39:09.708Z,18.10
2022-08-14T01:41:42.445Z,18.00
2022-08-14T01:44:32.350Z,18.00
2022-08-14T01:47:12.306Z,18.00
2022-08-14T01:50:01.174Z,18.00
2022-08-14T01:52:57.990Z,17.90
2022-08-14T01:55:24.584Z,17.80
2022-08-14T01:58:02.080Z,17.80
2022-08-14T02:00:40.950Z,17.80
2022-08-14T02:03:09.421Z,17.70
2022-08-14T02:05:39.084Z,17.70
2022-08-14T02:08:10.198Z,17.70
2022-08-14T02:10:46.215Z,17.70
2022-08-14T02:13:16.638Z,17.70
2022-08-14T02:15:48.502Z,17.60
2022-08-14T02:18:18.336Z,17.60
2022-08-14T02:20:48.551Z,17.50
2022-08-14T02:23:29.183Z,17.50
2022-08-14T02:26:24.197Z,17.50
2022-08-14T02:28:58.444Z,17.40
2022-08-14T02:31:36.033Z,17.30
2022-08-14T02:34:22.564Z,17.30
2022-08-14T02:37:04.832Z,17.30
2022-08-14T02:39:36.976Z,17.30
2022-08-14T02:42:13.078Z,17.20
2022-08-14T02:44:43.234Z,17.20
2022-08-14T02:47:20.952Z,17.20
2022-08-14T02:49:54.754Z,17.10
2022-08-14T02:52:55.877Z,17.00
2022-08-14T02:55:19.668Z,17.00
2022-08-14T02:58:03.218Z,16.90
2022-08-14T03:00:35.642Z,16.90
2022-08-14T03:03:08.549Z,16.80
2022-08-14T03:05:41.249Z,16.80
2022-08-14T03:08:16.183Z,16.80
2022-08-14T03:10:49.534Z,16.80
2022-08-14T03:13:21.256Z,16.70
2022-08-14T03:15:55.003Z,16.70
2022-08-14T03:18:31.423Z,16.80
2022-08-14T03:21:03.401Z,16.70
2022-08-14T03:23:37.905Z,16.80
2022-08-14T03:26:12.719Z,16.70
2022-08-14T03:28:50.242Z,16.70
2022-08-14T03:31:22.115Z,16.70
2022-08-14T03:33:54.582Z,16.80
2022-08-14T03:37:37.767Z,16.60
2022-08-14T03:39:22.793Z,16.60
2022-08-14T03:41:55.878Z,16.60
2022-08-14T03:45:25.808Z,16.50
2022-08-14T03:47:17.201Z,16.40
2022-08-14T03:49:49.888Z,16.40
2022-08-14T03:52:39.165Z,16.40
2022-08-14T03:55:09.482Z,16.40
2022-08-14T03:57:37.622Z,16.40
2022-08-14T04:00:13.421Z,16.30
2022-08-14T04:03:00.228Z,16.40
2022-08-14T04:05:28.660Z,16.50
2022-08-14T04:08:23.150Z,16.40
2022-08-14T04:10:57.521Z,16.40
2022-08-14T04:13:27.914Z,16.30
2022-08-14T04:16:05.225Z,16.30
2022-08-14T04:18:35.244Z,16.30
2022-08-14T04:21:04.488Z,16.30
2022-08-14T04:23:35.207Z,16.30
2022-08-14T04:26:08.256Z,16.40
2022-08-14T04:29:01.924Z,16.40
2022-08-14T04:32:57.639Z,16.40
2022-08-14T04:34:20.905Z,16.20
2022-08-14T04:37:25.483Z,16.20
2022-08-14T04:40:13.501Z,16.20
2022-08-14T04:43:01.353Z,16.30
2022-08-14T04:45:32.808Z,16.30
2022-08-14T04:48:13.774Z,16.30
2022-08-14T04:51:03.493Z,16.40
2022-08-14T04:53:35.446Z,16.40
2022-08-14T04:56:05.902Z,16.50
2022-08-14T04:58:39.162Z,16.60
2022-08-14T05:01:13.027Z,16.70
2022-08-14T05:03:50.633Z,16.70
2022-08-14T05:06:37.849Z,16.80
2022-08-14T05:09:13.907Z,16.80
2022-08-14T05:11:44.208Z,17.00
2022-08-14T05:14:17.109Z,17.10
2022-08-14T05:17:02.340Z,17.20
2022-08-14T05:19:32.897Z,17.30
2022-08-14T05:22:17.475Z,17.30
2022-08-14T05:24:50.598Z,17.50
2022-08-14T05:27:23.268Z,17.70
2022-08-14T05:29:57.426Z,17.80
2022-08-14T05:32:36.945Z,17.90
2022-08-14T05:35:08.045Z,18.00
2022-08-14T05:37:35.979Z,18.10
2022-08-14T05:40:05.150Z,18.10
2022-08-14T05:42:34.670Z,18.30
2022-08-14T05:45:04.430Z,18.40
2022-08-14T05:47:39.203Z,18.50
2022-08-14T05:50:17.297Z,18.50
2022-08-14T05:52:49.101Z,18.70
2022-08-14T05:55:22.972Z,18.70
2022-08-14T05:57:54.163Z,18.70
2022-08-14T06:00:29.844Z,18.90
2022-08-14T06:03:06.937Z,19.10
2022-08-14T06:05:38.867Z,19.20
2022-08-14T06:08:30.972Z,19.30
2022-08-14T06:11:06.283Z,19.40
2022-08-14T06:13:44.702Z,19.50
2022-08-14T06:16:17.803Z,19.60
2022-08-14T06:18:48.308Z,19.80
2022-08-14T06:21:18.084Z,19.90
2022-08-14T06:23:48.984Z,20.20
2022-08-14T06:26:20.531Z,20.40
2022-08-14T06:28:51.989Z,20.60
2022-08-14T06:31:20.688Z,20.80
2022-08-14T06:35:03.662Z,20.90
2022-08-14T06:36:39.543Z,21.10
2022-08-14T06:39:10.491Z,21.20
2022-08-14T06:41:57.244Z,21.40
2022-08-14T06:44:30.700Z,21.60
2022-08-14T06:47:02.113Z,21.70
2022-08-14T06:49:30.571Z,21.90
2022-08-14T06:52:04.865Z,22.00
2022-08-14T06:54:34.011Z,22.10
2022-08-14T06:57:02.025Z,22.20
2022-08-14T06:59:31.532Z,22.30
2022-08-14T07:02:19.395Z,22.50
2022-08-14T07:05:06.207Z,22.60
2022-08-14T07:07:41.281Z,22.70
2022-08-14T07:10:17.008Z,22.90
2022-08-14T07:12:56.435Z,23.00
2022-08-14T07:15:32.360Z,23.10
2022-08-14T07:18:03.081Z,23.20
2022-08-14T07:20:32.146Z,23.30
2022-08-14T07:23:07.825Z,23.40
2022-08-14T07:25:38.096Z,23.50
2022-08-14T07:28:12.951Z,23.60
2022-08-14T07:30:51.905Z,23.70
2022-08-14T07:33:29.248Z,23.80
2022-08-14T07:35:59.953Z,23.90
2022-08-14T07:38:37.448Z,24.00
2022-08-14T07:41:11.631Z,24.10
2022-08-14T07:43:47.386Z,24.20
2022-08-14T07:46:29.207Z,24.30
2022-08-14T07:48:59.919Z,24.40
2022-08-14T07:51:34.228Z,24.50
2022-08-14T07:54:10.993Z,24.60
2022-08-14T07:56:47.195Z,24.70
2022-08-14T07:59:18.991Z,24.80
2022-08-14T08:01:51.672Z,24.90
2022-08-14T08:04:27.347Z,25.10
2022-08-14T08:06:56.685Z,25.30
2022-08-14T08:09:31.712Z,25.50
2022-08-14T08:12:04.833Z,25.70
2022-08-14T08:14:56.765Z,25.90
2022-08-14T08:17:28.331Z,26.00
2022-08-14T08:20:03.243Z,26.10
2022-08-14T08:22:32.359Z,26.30
2022-08-14T08:25:02.479Z,26.20
2022-08-14T08:27:30.852Z,26.30
2022-08-14T08:30:10.297Z,26.30
2022-08-14T08:32:41.633Z,26.30
2022-08-14T08:35:18.991Z,26.40
2022-08-14T08:37:47.905Z,26.50
2022-08-14T08:40:31.328Z,26.50
2022-08-14T08:43:01.702Z,26.60
2022-08-14T08:45:30.384Z,26.70
2022-08-14T08:47:59.174Z,26.60
2022-08-14T08:53:02.020Z,26.80
2022-08-14T08:55:34.776Z,26.90
2022-08-14T08:58:12.578Z,26.90
2022-08-14T09:00:49.192Z,27.00
2022-08-14T09:03:21.400Z,27.00
2022-08-14T09:05:56.168Z,27.00
2022-08-14T09:08:30.511Z,27.00
2022-08-14T09:11:19.347Z,27.00
2022-08-14T09:13:51.354Z,27.10
2022-08-14T09:16:23.717Z,27.10
2022-08-14T09:18:53.913Z,27.30
2022-08-14T09:21:25.084Z,27.40
2022-08-14T09:24:28.744Z,27.30
2022-08-14T09:26:50.178Z,27.30
2022-08-14T09:29:23.188Z,27.40
2022-08-14T09:31:57.723Z,27.40
2022-08-14T09:34:53.266Z,27.30
2022-08-14T09:37:37.560Z,27.40
2022-08-14T09:40:20.749Z,27.40
2022-08-14T09:43:09.808Z,27.50
2022-08-14T09:45:53.070Z,27.50
2022-08-14T09:48:29.924Z,27.70
2022-08-14T09:54:13.019Z,27.80
2022-08-14T09:56:32.899Z,27.90
2022-08-14T09:59:15.313Z,28.00
2022-08-14T10:01:46.222Z,28.10
2022-08-14T10:04:33.721Z,28.10
2022-08-14T10:07:03.654Z,28.00
2022-08-14T10:09:33.603Z,28.20
2022-08-14T10:12:04.419Z,28.20
2022-08-14T10:14:37.232Z,28.30
2022-08-14T10:17:08.398Z,28.40
2022-08-14T10:19:48.885Z,28.50
2022-08-14T10:23:12.484Z,28.70
2022-08-14T10:25:14.239Z,28.60
2022-08-14T10:27:47.071Z,28.60
2022-08-14T10:30:22.453Z,28.70
2022-08-14T10:32:52.441Z,28.80
2022-08-14T10:35:23.194Z,29.00
2022-08-14T10:38:02.835Z,29.10
2022-08-14T10:40:37.657Z,29.00
2022-08-14T10:43:23.324Z,29.10
2022-08-14T10:46:04.083Z,29.10
2022-08-14T10:48:57.947Z,29.20
2022-08-14T10:51:30.215Z,29.30
2022-08-14T10:54:25.897Z,29.40
2022-08-14T10:56:57.510Z,29.40
2022-08-14T10:59:35.446Z,29.50
2022-08-14T11:02:36.121Z,29.70
2022-08-14T11:05:13.367Z,30.00
2022-08-14T11:07:44.900Z,30.20
2022-08-14T11:10:14.940Z,30.20
2022-08-14T11:12:48.415Z,30.20
2022-08-14T11:15:18.690Z,30.30
2022-08-14T11:17:50.528Z,30.50
2022-08-14T11:20:23.910Z,31.10
2022-08-14T11:23:03.186Z,31.80
2022-08-14T11:25:36.714Z,32.80
2022-08-14T11:28:14.666Z,33.60
2022-08-14T11:30:54.426Z,34.30
2022-08-14T11:33:31.441Z,34.60
2022-08-14T11:36:01.948Z,34.90
2022-08-14T11:38:37.894Z,35.20
2022-08-14T11:41:07.486Z,35.70
2022-08-14T11:43:41.741Z,36.20
2022-08-14T11:46:17.962Z,36.90
2022-08-14T11:49:05.635Z,37.30
2022-08-14T11:51:35.923Z,37.80
2022-08-14T11:54:08.414Z,38.00
2022-08-14T11:56:37.726Z,38.40
2022-08-14T11:59:10.072Z,38.70
2022-08-14T12:01:40.998Z,39.10
2022-08-14T12:04:32.035Z,39.70
2022-08-14T12:07:03.841Z,40.00
2022-08-14T12:09:33.492Z,40.10
2022-08-14T12:12:02.556Z,39.90
2022-08-14T12:14:35.408Z,40.00
2022-08-14T12:17:11.750Z,40.30
2022-08-14T12:19:54.252Z,40.70
2022-08-14T12:22:37.110Z,41.10
2022-08-14T12:25:11.013Z,41.50
2022-08-14T12:27:53.638Z,42.20
2022-08-14T12:30:42.526Z,42.50
2022-08-14T12:33:30.616Z,42.40
2022-08-14T12:36:05.396Z,42.70
2022-08-14T12:38:36.551Z,42.50
2022-08-14T12:41:10.195Z,42.60
2022-08-14T12:43:48.378Z,42.80
2022-08-14T12:46:27.502Z,42.80
2022-08-14T12:48:59.336Z,43.10
2022-08-14T12:51:30.884Z,43.50
2022-08-14T12:54:01.747Z,43.60
2022-08-14T12:56:33.457Z,43.50
2022-08-14T12:59:03.403Z,43.80
2022-08-14T13:01:59.059Z,43.90
2022-08-14T13:04:23.131Z,43.70
2022-08-14T13:06:54.058Z,43.70
2022-08-14T13:09:37.724Z,43.80
2022-08-14T13:12:31.846Z,43.60
2022-08-14T13:14:57.808Z,43.40
2022-08-14T13:17:27.013Z,43.10
2022-08-14T13:19:58.324Z,42.60
2022-08-14T13:22:32.261Z,42.20
2022-08-14T13:25:05.289Z,42.00
2022-08-14T13:27:34.022Z,41.90
2022-08-14T13:30:10.231Z,41.90
2022-08-14T13:32:40.688Z,42.10
2022-08-14T13:35:12.321Z,42.50
2022-08-14T13:37:49.923Z,42.90
2022-08-14T13:40:21.654Z,43.20
2022-08-14T13:42:56.933Z,43.50
2022-08-14T13:46:00.021Z,43.80
2022-08-14T13:48:30.657Z,43.80
2022-08-14T13:51:01.828Z,44.00
2022-08-14T13:53:34.880Z,43.90
2022-08-14T13:56:07.009Z,43.30
2022-08-14T13:58:46.899Z,42.50
2022-08-14T14:01:19.002Z,42.20
2022-08-14T14:03:53.366Z,41.80
2022-08-14T14:06:24.714Z,41.40
2022-08-14T14:08:56.479Z,41.00
2022-08-14T14:11:29.970Z,40.20
2022-08-14T14:14:00.528Z,39.50
2022-08-14T14:16:30.397Z,38.90
2022-08-14T14:19:10.493Z,38.70
2022-08-14T14:21:40.756Z,38.60
2022-08-14T14:24:14.872Z,38.50
2022-08-14T14:26:45.440Z,38.10
2022-08-14T14:29:24.075Z,37.40
2022-08-14T14:31:54.689Z,37.10
2022-08-14T14:34:30.137Z,36.80
2022-08-14T14:37:04.701Z,36.50
2022-08-14T14:39:37.365Z,36.40
2022-08-14T14:42:31.723Z,36.30
2022-08-14T14:45:04.485Z,35.80
2022-08-14T14:47:34.803Z,35.50
2022-08-14T14:50:05.014Z,35.30
2022-08-14T14:52:37.223Z,35.20
2022-08-14T14:55:12.390Z,34.80
2022-08-14T14:57:41.723Z,34.40
2022-08-14T15:00:19.307Z,34.20
2022-08-14T15:02:51.547Z,34.00
2022-08-14T15:05:20.953Z,33.70
2022-08-14T15:07:52.707Z,33.50
2022-08-14T15:10:27.105Z,33.30
2022-08-14T15:13:04.222Z,33.30
2022-08-14T15:15:33.585Z,33.10
2022-08-14T15:18:15.045Z,33.00
2022-08-14T15:20:57.433Z,32.80
2022-08-14T15:23:32.309Z,32.60
2022-08-14T15:26:24.070Z,32.60
2022-08-14T15:29:02.742Z,32.70
2022-08-14T15:31:34.703Z,32.90
2022-08-14T15:34:45.807Z,32.80
2022-08-14T15:37:03.132Z,32.50
2022-08-14T15:39:35.425Z,32.50
2022-08-14T15:42:14.715Z,32.40
2022-08-14T15:44:58.016Z,32.40
2022-08-14T15:47:30.333Z,32.30
2022-08-14T15:50:01.278Z,32.20
2022-08-14T15:52:32.406Z,32.20
2022-08-14T15:55:05.294Z,32.30
2022-08-14T15:57:36.016Z,32.20
2022-08-14T16:00:44.144Z,32.10
2022-08-14T16:03:12.621Z,32.10
2022-08-14T16:05:43.947Z,31.80
2022-08-14T16:08:26.702Z,31.60
2022-08-14T16:10:59.796Z,31.60
2022-08-14T16:13:39.005Z,31.40
2022-08-14T16:16:34.473Z,31.50
2022-08-14T16:19:09.627Z,31.30
2022-08-14T16:22:01.613Z,31.30
2022-08-14T16:24:36.052Z,31.40
2022-08-14T16:27:34.161Z,31.30
2022-08-14T16:30:20.799Z,31.20
2022-08-14T16:32:56.119Z,30.90
2022-08-14T16:35:43.160Z,30.90
2022-08-14T16:38:35.808Z,30.90
2022-08-14T16:41:23.030Z,30.60
2022-08-14T16:43:58.899Z,30.50
2022-08-14T16:46:32.512Z,30.50
2022-08-14T16:49:01.568Z,30.30
2022-08-14T16:51:34.795Z,30.20
2022-08-14T16:54:20.521Z,30.10
2022-08-14T16:56:49.816Z,30.00
2022-08-14T16:59:30.424Z,29.90
2022-08-14T17:02:14.282Z,29.80
2022-08-14T17:04:49.035Z,29.70
2022-08-14T17:07:17.599Z,29.70
2022-08-14T17:09:49.731Z,29.60
2022-08-14T17:12:34.070Z,29.60
2022-08-14T17:15:11.262Z,29.50
2022-08-14T17:17:53.181Z,29.40
2022-08-14T17:20:39.280Z,29.40
2022-08-14T17:23:16.221Z,29.40
2022-08-14T17:25:49.390Z,29.30
2022-08-14T17:28:50.150Z,29.20
2022-08-14T17:31:12.380Z,29.20
2022-08-14T17:33:44.653Z,29.20
2022-08-14T17:36:24.287Z,29.20
2022-08-14T17:39:06.831Z,29.10
2022-08-14T17:41:37.603Z,29.00
2022-08-14T17:44:33.486Z,28.80
2022-08-14T17:47:11.277Z,28.60
2022-08-14T17:49:52.358Z,28.40
2022-08-14T17:52:34.185Z,28.20
2022-08-14T17:55:04.856Z,28.20
2022-08-14T17:57:35.203Z,28.10
2022-08-14T18:00:12.743Z,28.10
2022-08-14T18:02:51.334Z,28.00
2022-08-14T18:06:08.661Z,28.00
2022-08-14T18:08:32.538Z,27.90
2022-08-14T18:11:02.434Z,27.80
2022-08-14T18:13:50.774Z,27.80
2022-08-14T18:16:22.445Z,27.80
2022-08-14T18:18:52.390Z,27.70
2022-08-14T18:21:40.266Z,27.60
2022-08-14T18:24:19.967Z,27.40
2022-08-14T18:27:08.983Z,27.40
2022-08-14T18:29:44.808Z,27.40
2022-08-14T18:32:46.234Z,27.20
2022-08-14T18:35:19.131Z,26.90
2022-08-14T18:37:55.881Z,26.90
2022-08-14T18:40:35.056Z,26.90
2022-08-14T18:43:06.279Z,26.70
2022-08-14T18:45:42.934Z,26.70
2022-08-14T18:48:28.665Z,26.60
2022-08-14T18:51:45.509Z,26.60
2022-08-14T18:54:32.913Z,26.50
2022-08-14T18:57:02.694Z,26.40
2022-08-14T18:59:35.868Z,26.30
2022-08-14T19:02:42.431Z,26.20
2022-08-14T19:05:11.811Z,26.20
2022-08-14T19:07:40.841Z,26.10
2022-08-14T19:10:16.745Z,26.00
2022-08-14T19:13:11.754Z,26.00
2022-08-14T19:15:43.666Z,26.00
2022-08-14T19:18:26.148Z,25.90
2022-08-14T19:20:58.701Z,25.90
2022-08-14T19:23:43.227Z,25.80
2022-08-14T19:26:35.716Z,25.80
2022-08-14T19:29:36.002Z,25.80
2022-08-14T19:32:28.099Z,25.80
2022-08-14T19:34:59.982Z,25.70
2022-08-14T19:37:52.112Z,25.70
2022-08-14T19:40:33.886Z,25.70
2022-08-14T19:43:06.799Z,25.60
2022-08-14T19:45:39.432Z,25.60
2022-08-14T19:48:14.296Z,25.60
2022-08-14T19:50:46.273Z,25.60
2022-08-14T19:53:18.350Z,25.60
2022-08-14T19:55:59.639Z,25.60
2022-08-14T19:58:54.587Z,25.50
2022-08-14T20:01:36.431Z,25.50
2022-08-14T20:04:22.899Z,25.40
2022-08-14T20:06:57.559Z,25.50
2022-08-14T20:11:08.059Z,25.40
2022-08-14T20:12:28.984Z,25.30
2022-08-14T20:15:08.789Z,25.30
2022-08-14T20:17:40.539Z,25.30
2022-08-14T20:20:21.057Z,25.30
2022-08-14T20:23:11.111Z,25.20
2022-08-14T20:25:56.039Z,25.20
2022-08-14T20:28:31.997Z,25.20
2022-08-14T20:31:17.684Z,25.20
2022-08-14T20:34:07.055Z,25.10
2022-08-14T20:36:39.830Z,25.20
2022-08-14T20:39:15.376Z,25.10
2022-08-14T20:41:51.181Z,25.10
2022-08-14T20:44:40.567Z,25.10
2022-08-14T20:47:16.181Z,25.00
2022-08-14T20:49:45.545Z,25.00
2022-08-14T20:52:19.027Z,25.00
2022-08-14T20:54:51.721Z,25.00
2022-08-14T20:57:20.433Z,25.00
2022-08-14T20:59:53.095Z,25.00
2022-08-14T21:02:49.721Z,25.00
2022-08-14T21:05:23.563Z,25.00
2022-08-14T21:08:10.039Z,25.00
2022-08-14T21:10:55.083Z,25.00
2022-08-14T21:13:27.679Z,24.90
2022-08-14T21:16:33.706Z,24.90
2022-08-14T21:19:05.321Z,25.00
2022-08-14T21:21:40.879Z,24.90
2022-08-14T21:24:38.581Z,24.80
2022-08-14T21:27:12.262Z,24.80
2022-08-14T21:29:54.002Z,24.80
2022-08-14T21:32:36.517Z,24.80
2022-08-14T21:35:22.991Z,24.80
2022-08-14T21:37:53.642Z,24.80
2022-08-14T21:40:41.932Z,24.70
2022-08-14T21:43:18.488Z,24.60
2022-08-14T21:45:51.732Z,24.70
2022-08-14T21:48:22.416Z,24.60
2022-08-14T21:51:01.977Z,24.50
2022-08-14T21:53:58.991Z,24.50
2022-08-14T21:56:37.373Z,24.50
2022-08-14T21:59:17.454Z,24.40
2022-08-14T22:02:00.701Z,24.40
2022-08-14T22:04:34.506Z,24.30
2022-08-14T22:07:12.136Z,24.30
2022-08-14T22:09:42.834Z,24.20
2022-08-14T22:12:45.565Z,24.20
2022-08-14T22:15:03.205Z,24.20
2022-08-14T22:17:34.139Z,24.20
2022-08-14T22:20:05.071Z,24.20
2022-08-14T22:22:34.765Z,24.20
2022-08-14T22:25:09.157Z,24.20
2022-08-14T22:27:55.741Z,24.20
2022-08-14T22:30:25.767Z,24.20
2022-08-14T22:32:56.590Z,24.20
2022-08-14T22:35:27.136Z,24.20
2022-08-14T22:38:36.125Z,24.20
2022-08-14T22:41:07.429Z,24.20
2022-08-14T22:43:36.097Z,24.20
2022-08-14T22:46:14.532Z,24.20
2022-08-14T22:48:45.072Z,24.20
2022-08-14T22:51:15.204Z,24.10
2022-08-14T22:53:51.701Z,24.10
2022-08-14T22:56:30.215Z,24.00
2022-08-14T22:59:00.872Z,24.10
2022-08-14T23:01:56.355Z,24.10
2022-08-14T23:04:35.667Z,24.10
2022-08-14T23:07:22.022Z,24.00
2022-08-14T23:09:55.831Z,24.00
2022-08-14T23:12:31.778Z,24.00
2022-08-14T23:15:03.992Z,24.00
2022-08-14T23:17:39.151Z,24.00
2022-08-14T23:20:18.530Z,24.00
2022-08-14T23:22:51.174Z,24.00
2022-08-14T23:25:57.366Z,24.00
2022-08-14T23:28:34.788Z,23.90
2022-08-14T23:31:08.556Z,23.90
2022-08-14T23:33:45.861Z,23.80
2022-08-14T23:36:32.105Z,23.80
2022-08-14T23:39:10.211Z,23.70
2022-08-14T23:41:45.976Z,23.60
2022-08-14T23:44:22.722Z,23.60
2022-08-14T23:46:57.053Z,23.40
2022-08-14T23:49:55.434Z,23.30
2022-08-14T23:52:56.163Z,23.20
2022-08-14T23:55:11.036Z,23.20
2022-08-14T23:57:43.630Z,23.10
